Meteo Giornale » Osservazioni meteo Italia » Treviso-Istrana

ore: 20:55 - Osservazioni Meteo Treviso-Istrana
Lat. 45° 41' N Lon. 12° 6' E Alt. 45 metri s.l.m.

sereno Europe/Rome

22 °C

Sereno

Temp. 24 Ore

17 °C

28 °C

Nord

0 Km/h

Dew point 22 °C

Umidità 100 %

Visibilità  10 Km

Il sole sorge alle ore 06:56

Il sole tramonta alle ore 19:12

Data e Ora Cielo e Fenomeni T °C DP °C Um. % Pres. hPa Vis. km Vento km/h
Oggi h: 20:55 sereno Sereno 22 22 100 1016 10 N 0
Oggi h: 19:55 sereno Sereno 23 21 88 1015 10 N 0
Oggi h: 18:55 sereno Sereno 25 21 78 1015 10 S/SE 7.4
Oggi h: 16:55 poco_nuvoloso Poco Nuvoloso 27 18 57 1015 10 E/SE 9.3
Oggi h: 15:55 poco_nuvoloso Poco Nuvoloso 28 19 58 1015 10 SE 11.1
Oggi h: 14:55 sereno Sereno 28 18 54 1015 10 E/NE 11.1
Oggi h: 13:55 nuvoloso Nuvoloso 28 18 54 1016 10 NE 9.3
Oggi h: 12:55 molto_nuvoloso Molto Nuvoloso 26 18 61 1016 10 E 7.4
Oggi h: 11:55 sereno Sereno 25 18 65 1016 10 E 7.4
Oggi h: 10:55 sereno Sereno 25 18 65 1016 10 E 9.3
Oggi h: 09:55 sereno Sereno 23 18 73 1016 10 NE 7.4
Oggi h: 08:55 sereno Sereno 19 19 100 1016 10 N 0
Oggi h: 07:55 poco_nuvoloso Poco Nuvoloso 17 17 100 1016 10 N 0
Oggi h: 06:55 nuvoloso Nuvoloso 18 18 100 1016 10 N 5.5
Oggi h: 05:55 sereno Sereno 18 18 100 1015 10 N 0
Oggi h: 04:55 sereno Sereno 18 18 100 1016 10 E/NE 7.4
Oggi h: 03:55 sereno Sereno 19 19 100 1016 10 NE 11.1
Oggi h: 01:55 sereno Sereno 19 19 100 1016 10 N 0
Oggi h: 00:55 sereno Sereno 21 19 88 1016 10 N 0
Ieri h: 23:55 molto_nuvoloso Molto Nuvoloso 21 19 88 1016 10 N 0
Ieri h: 22:55 sereno Sereno 20 19 93 1016 10 N 0